Time;durP1;ratioP1;P1;durP2;ratioP2;P2;SDS_P1;SDS_P2;PMS_P1;PMS_P2;Temp;Humidity;BMP_temperature;BMP_pressure;BME280_temperature;BME280_humidity;BME280_pressure;Samples;Min_cycle;Max_cycle;Signal;HPM_P1;HPM_P2
2023/01/02 00:01:40;;;;;;;35.55;20.15;;;10.00;99.90;;;;;;6152541;23;20430;-80
2023/01/02 00:04:06;;;;;;;30.38;19.90;;;10.00;99.90;;;;;;6150297;23;20010;-79
2023/01/02 00:06:35;;;;;;;38.60;22.42;;;10.00;99.90;;;;;;6152898;23;20532;-79
2023/01/02 00:09:03;;;;;;;34.50;21.48;;;10.00;99.90;;;;;;6152483;23;20514;-79
2023/01/02 00:11:28;;;;;;;33.58;19.60;;;10.10;99.90;;;;;;6150907;23;20021;-80
2023/01/02 00:13:54;;;;;;;37.20;21.65;;;10.10;99.90;;;;;;6149768;23;20053;-80
2023/01/02 00:16:20;;;;;;;31.77;18.95;;;10.10;99.90;;;;;;6152749;23;20587;-80
2023/01/02 00:18:45;;;;;;;29.30;18.27;;;10.10;99.90;;;;;;6152615;23;20440;-80
2023/01/02 00:21:11;;;;;;;36.80;20.17;;;10.10;99.90;;;;;;6151103;23;20024;-80
2023/01/02 00:23:37;;;;;;;27.55;18.75;;;10.10;99.90;;;;;;6150740;23;20080;-79
2023/01/02 00:26:03;;;;;;;28.48;18.20;;;10.10;99.90;;;;;;6126392;23;20014;-80
2023/01/02 00:28:29;;;;;;;26.15;16.30;;;10.10;99.90;;;;;;6152236;23;20013;-79
2023/01/02 00:30:55;;;;;;;28.23;17.05;;;10.20;99.90;;;;;;6150819;23;20419;-80
2023/01/02 00:33:20;;;;;;;40.33;19.90;;;10.10;99.90;;;;;;6150309;23;20018;-80
2023/01/02 00:35:46;;;;;;;27.30;16.40;;;10.20;99.90;;;;;;6152376;23;20025;-79
2023/01/02 00:38:11;;;;;;;22.38;14.95;;;10.20;99.90;;;;;;6152830;23;20010;-79
2023/01/02 00:40:37;;;;;;;24.15;15.27;;;10.20;99.90;;;;;;6152407;23;20056;-79
2023/01/02 00:43:03;;;;;;;35.45;24.65;;;10.20;99.90;;;;;;6151633;23;20410;-79
2023/01/02 00:45:28;;;;;;;30.70;19.33;;;10.20;99.90;;;;;;6126286;23;20312;-79
2023/01/02 00:47:54;;;;;;;27.27;16.13;;;10.20;99.90;;;;;;6151070;23;20333;-79
2023/01/02 00:50:20;;;;;;;27.85;16.33;;;10.20;99.90;;;;;;6150620;23;20020;-79
2023/01/02 00:52:45;;;;;;;25.88;16.67;;;10.20;99.90;;;;;;6152193;23;20013;-79
2023/01/02 00:55:11;;;;;;;31.92;17.88;;;10.20;99.90;;;;;;6149603;23;20369;-79
2023/01/02 00:57:36;;;;;;;30.52;18.42;;;10.20;99.90;;;;;;6153048;23;20088;-79
2023/01/02 01:00:04;;;;;;;28.65;16.98;;;10.20;99.90;;;;;;6125879;23;20009;-79
2023/01/02 01:02:30;;;;;;;39.85;20.55;;;10.30;99.90;;;;;;6151762;23;20020;-79
2023/01/02 01:04:55;;;;;;;30.42;18.27;;;10.30;99.90;;;;;;6150275;23;20009;-79
2023/01/02 01:07:21;;;;;;;35.70;20.88;;;10.30;99.90;;;;;;6152082;23;20084;-79
2023/01/02 01:09:47;;;;;;;35.45;22.67;;;10.30;99.90;;;;;;6151840;23;20447;-79
2023/01/02 01:12:12;;;;;;;42.10;25.08;;;10.30;99.90;;;;;;6152257;23;20024;-78
2023/01/02 01:14:38;;;;;;;52.00;30.80;;;10.30;99.90;;;;;;6125500;23;20022;-79
2023/01/02 01:17:03;;;;;;;42.30;27.13;;;10.30;99.90;;;;;;6150413;23;20029;-79
2023/01/02 01:19:31;;;;;;;48.45;28.88;;;10.30;99.90;;;;;;6150249;23;20009;-79
2023/01/02 01:21:57;;;;;;;49.53;31.52;;;10.30;99.90;;;;;;6150409;23;20091;-79
2023/01/02 01:24:22;;;;;;;50.22;32.03;;;10.30;99.90;;;;;;6149156;23;20444;-79
2023/01/02 01:26:48;;;;;;;58.05;35.60;;;10.40;99.90;;;;;;6152129;23;20013;-79
2023/01/02 01:29:13;;;;;;;53.00;33.92;;;10.30;99.90;;;;;;6151595;23;20033;-79
2023/01/02 01:31:39;;;;;;;44.85;29.38;;;10.30;99.90;;;;;;6152475;23;20024;-79
2023/01/02 01:34:04;;;;;;;50.38;33.40;;;10.40;99.90;;;;;;6150012;23;20417;-79
2023/01/02 01:36:30;;;;;;;47.00;30.67;;;10.50;99.90;;;;;;6150292;23;20017;-79
2023/01/02 01:38:56;;;;;;;53.03;33.03;;;10.40;99.90;;;;;;6151513;23;20503;-79
2023/01/02 01:41:24;;;;;;;58.90;37.63;;;10.40;99.90;;;;;;6151753;23;20061;-79
2023/01/02 01:43:53;;;;;;;70.75;39.60;;;10.50;99.90;;;;;;6149722;23;20025;-79
2023/01/02 01:46:39;;;;;;;61.28;38.15;;;10.40;99.90;;;;;;6152093;23;20024;-79
2023/01/02 01:49:09;;;;;;;48.15;34.15;;;10.50;99.90;;;;;;6150286;23;20009;-79
2023/01/02 01:51:42;;;;;;;51.08;34.13;;;10.50;99.90;;;;;;6150162;23;20464;-79
2023/01/02 01:54:14;;;;;;;51.33;34.53;;;10.50;99.90;;;;;;6149303;23;20021;-79
2023/01/02 01:56:45;;;;;;;49.53;33.58;;;10.50;99.90;;;;;;6150339;23;20045;-79
2023/01/02 01:59:11;;;;;;;52.28;35.03;;;10.60;99.90;;;;;;6150514;23;20047;-80
2023/01/02 02:01:39;;;;;;;49.15;32.85;;;10.50;99.90;;;;;;6126019;23;20049;-79
2023/01/02 02:04:05;;;;;;;44.20;30.83;;;10.60;99.90;;;;;;6151421;23;20005;-80
2023/01/02 02:06:31;;;;;;;45.50;29.98;;;10.60;99.90;;;;;;6151951;23;20526;-79
2023/01/02 02:09:05;;;;;;;46.70;30.55;;;10.60;99.90;;;;;;6151466;23;20064;-80
2023/01/02 02:11:31;;;;;;;50.75;32.00;;;10.60;99.90;;;;;;6150579;23;20427;-79
2023/01/02 02:13:58;;;;;;;48.03;29.92;;;10.60;99.90;;;;;;6149392;23;20325;-78
2023/01/02 02:16:49;;;;;;;45.85;29.17;;;10.60;99.90;;;;;;6151914;23;20344;-79
2023/01/02 02:19:52;;;;;;;44.88;29.13;;;10.60;99.90;;;;;;6150017;23;20052;-79
2023/01/02 02:22:35;;;;;;;39.30;27.13;;;10.60;99.90;;;;;;6149157;23;20029;-79
2023/01/02 02:25:19;;;;;;;41.53;29.25;;;10.60;99.90;;;;;;6149507;23;20018;-79
2023/01/02 02:28:06;;;;;;;47.25;27.60;;;10.60;99.90;;;;;;6150050;23;20496;-79
2023/01/02 02:30:39;;;;;;;42.53;27.02;;;10.80;99.90;;;;;;6152280;23;20285;-80
2023/01/02 02:33:31;;;;;;;37.83;26.00;;;10.70;99.90;;;;;;6148745;23;20025;-78
2023/01/02 02:36:59;;;;;;;37.05;25.42;;;10.70;99.90;;;;;;6151765;23;20049;-80
2023/01/02 02:39:42;;;;;;;31.60;21.90;;;10.70;99.90;;;;;;6029318;23;20070;-80
2023/01/02 02:42:36;;;;;;;33.67;21.85;;;10.70;99.90;;;;;;6062946;23;20043;-80
2023/01/02 02:45:19;;;;;;;40.70;25.15;;;10.70;99.90;;;;;;6016540;23;20023;-79
2023/01/02 02:48:02;;;;;;;39.60;23.73;;;10.70;99.90;;;;;;6062998;23;20018;-79
2023/01/02 02:50:55;;;;;;;39.88;23.38;;;10.70;99.90;;;;;;6063458;23;20063;-79
2023/01/02 02:53:24;;;;;;;36.88;24.13;;;10.70;99.90;;;;;;6062026;23;20123;-79
2023/01/02 02:55:54;;;;;;;39.28;23.02;;;10.80;99.90;;;;;;6038974;23;20014;-79
2023/01/02 02:58:22;;;;;;;36.80;23.15;;;10.80;99.90;;;;;;6038839;23;20394;-79
2023/01/02 03:00:48;;;;;;;38.40;24.85;;;10.80;99.90;;;;;;6062679;23;20119;-79
2023/01/02 03:03:22;;;;;;;39.10;25.45;;;10.80;99.90;;;;;;6038199;23;20362;-80
2023/01/02 03:06:09;;;;;;;44.63;25.75;;;10.80;99.90;;;;;;6038230;23;20015;-79
2023/01/02 03:08:59;;;;;;;39.08;24.67;;;10.80;99.90;;;;;;6038735;23;20093;-79
2023/01/02 03:11:41;;;;;;;39.22;24.65;;;10.80;99.90;;;;;;6062856;23;20054;-79
2023/01/02 03:14:32;;;;;;;39.00;24.15;;;10.80;99.90;;;;;;6126851;23;20021;-79
2023/01/02 03:17:04;;;;;;;43.00;25.42;;;10.80;99.90;;;;;;6151488;23;20017;-79
2023/01/02 03:19:44;;;;;;;38.40;23.80;;;10.80;99.90;;;;;;6126713;23;20005;-79
2023/01/02 03:22:17;;;;;;;41.78;23.02;;;10.80;99.90;;;;;;6153299;23;20040;-79
2023/01/02 03:24:43;;;;;;;;;;;10.80;99.90;;;;;;6152878;23;20503;-79
2023/01/02 03:27:14;;;;;;;44.42;23.02;;;10.90;99.90;;;;;;6153255;23;19920;-79
2023/01/02 03:29:50;;;;;;;39.83;24.23;;;11.00;99.90;;;;;;6153341;23;20036;-79
2023/01/02 03:32:27;;;;;;;36.63;23.27;;;10.80;99.90;;;;;;6152771;23;20021;-79
2023/01/02 03:34:53;;;;;;;35.03;23.27;;;10.80;99.90;;;;;;6125907;23;20020;-79
2023/01/02 03:37:25;;;;;;;39.08;23.95;;;10.80;99.90;;;;;;6153118;23;20017;-78
2023/01/02 03:39:55;;;;;;;40.47;22.88;;;10.80;99.90;;;;;;6153408;23;20020;-79
2023/01/02 03:42:29;;;;;;;45.20;23.13;;;11.00;99.90;;;;;;6152932;23;20016;-79
2023/01/02 03:45:11;;;;;;;37.88;23.02;;;10.80;99.90;;;;;;6152744;23;20080;-79
2023/01/02 03:48:02;;;;;;;36.67;22.70;;;10.90;99.90;;;;;;6151570;23;20380;-79
2023/01/02 03:50:47;;;;;;;36.88;23.27;;;10.90;99.90;;;;;;6152446;23;20381;-79
2023/01/02 03:53:13;;;;;;;34.72;21.95;;;10.90;99.90;;;;;;6152153;23;20041;-79
2023/01/02 03:55:42;;;;;;;44.47;23.58;;;10.80;99.90;;;;;;6151733;23;20013;-79
2023/01/02 03:58:23;;;;;;;36.40;21.27;;;11.00;99.90;;;;;;6126686;23;20451;-79
2023/01/02 04:01:02;;;;;;;33.72;21.35;;;10.90;99.90;;;;;;6152739;23;20079;-79
2023/01/02 04:03:44;;;;;;;37.55;22.58;;;10.90;99.90;;;;;;6152368;23;20145;-79
2023/01/02 04:06:13;;;;;;;43.63;23.38;;;10.90;99.90;;;;;;6152768;23;20013;-79
2023/01/02 04:08:45;;;;;;;33.75;21.45;;;10.90;99.90;;;;;;6153225;23;20028;-79
2023/01/02 04:11:15;;;;;;;36.70;22.77;;;10.90;99.90;;;;;;6150962;23;20068;-79
2023/01/02 04:13:45;;;;;;;35.58;23.45;;;10.90;99.90;;;;;;6125815;23;20409;-79
2023/01/02 04:16:15;;;;;;;41.35;23.75;;;11.00;99.90;;;;;;6151134;23;20192;-79
2023/01/02 04:18:52;;;;;;;37.78;21.95;;;11.10;99.90;;;;;;6150442;23;20031;-79
2023/01/02 04:21:22;;;;;;;38.35;20.95;;;11.00;99.90;;;;;;6150766;23;20053;-79
2023/01/02 04:23:52;;;;;;;36.67;21.27;;;11.10;99.90;;;;;;6150195;23;20471;-79
2023/01/02 04:26:32;;;;;;;31.63;21.17;;;11.00;99.90;;;;;;6152729;23;20009;-79
2023/01/02 04:28:58;;;;;;;30.85;20.52;;;11.00;99.90;;;;;;6151029;23;20017;-79
2023/01/02 04:31:55;;;;;;;32.65;21.45;;;11.00;99.90;;;;;;6153004;23;20337;-79
2023/01/02 04:34:22;;;;;;;28.98;19.83;;;11.00;99.90;;;;;;6151635;23;20018;-79
2023/01/02 04:36:48;;;;;;;33.75;20.63;;;11.00;99.90;;;;;;6152907;23;20084;-79
2023/01/02 04:39:14;;;;;;;38.03;22.67;;;11.10;99.90;;;;;;6152489;23;20049;-79
2023/01/02 04:41:40;;;;;;;34.25;20.33;;;11.00;99.90;;;;;;6126090;23;20437;-79
2023/01/02 04:44:05;;;;;;;34.22;20.17;;;11.00;99.90;;;;;;6152087;23;20005;-79
2023/01/02 04:46:31;;;;;;;34.72;20.95;;;11.00;99.90;;;;;;6150874;23;20020;-79
2023/01/02 04:48:57;;;;;;;31.83;21.90;;;11.10;99.90;;;;;;6150034;23;20020;-79
2023/01/02 04:51:23;;;;;;;37.95;21.85;;;11.00;99.90;;;;;;6152502;23;20053;-79
2023/01/02 04:53:50;;;;;;;39.20;22.65;;;11.10;99.90;;;;;;6151898;23;20052;-78
2023/01/02 04:56:16;;;;;;;38.53;23.20;;;11.00;99.90;;;;;;6152265;23;20396;-80
2023/01/02 04:58:43;;;;;;;37.00;21.77;;;11.00;99.90;;;;;;6150865;23;20442;-79
2023/01/02 05:01:11;;;;;;;36.65;22.67;;;11.00;99.90;;;;;;6125794;23;20025;-79
2023/01/02 05:03:41;;;;;;;42.30;22.20;;;11.00;99.90;;;;;;6124433;23;20086;-79
2023/01/02 05:06:08;;;;;;;37.42;21.40;;;11.10;99.90;;;;;;6151081;23;20305;-79
2023/01/02 05:08:35;;;;;;;35.05;21.98;;;11.00;99.90;;;;;;6152335;23;20045;-79
2023/01/02 05:11:09;;;;;;;34.40;20.83;;;11.00;99.90;;;;;;6151861;23;20413;-79
2023/01/02 05:13:35;;;;;;;35.55;22.17;;;11.00;99.90;;;;;;6149789;23;20021;-79
2023/01/02 05:16:00;;;;;;;37.17;21.63;;;11.10;99.90;;;;;;6150104;23;20025;-79
2023/01/02 05:18:30;;;;;;;32.65;22.60;;;11.00;99.90;;;;;;6125071;23;20096;-78
2023/01/02 05:23:47;;;;;;;28.38;20.05;;;11.00;99.90;;;;;;6150412;23;20084;-79
2023/01/02 05:23:53;;;;;;;38.25;22.13;;;11.10;99.90;;;;;;6151125;23;20032;-79
2023/01/02 05:26:19;;;;;;;35.70;21.23;;;11.20;99.90;;;;;;6152036;23;20373;-79
2023/01/02 05:28:45;;;;;;;33.47;20.65;;;11.20;99.90;;;;;;6149963;23;20045;-79
2023/01/02 05:31:11;;;;;;;40.05;22.70;;;11.10;99.90;;;;;;6151360;23;20049;-79
2023/01/02 05:33:37;;;;;;;31.20;19.52;;;11.30;99.90;;;;;;6149748;23;20076;-79
2023/01/02 05:36:07;;;;;;;31.02;20.50;;;11.20;99.90;;;;;;6151751;23;20352;-79
2023/01/02 05:38:33;;;;;;;32.40;20.10;;;11.10;99.90;;;;;;6151595;23;20017;-79
2023/01/02 05:41:03;;;;;;;35.67;21.95;;;11.20;99.90;;;;;;6125469;23;20013;-79
2023/01/02 05:43:31;;;;;;;30.33;20.67;;;11.20;99.90;;;;;;6151575;23;20458;-79
2023/01/02 05:45:57;;;;;;;28.95;19.15;;;11.20;99.90;;;;;;6151689;23;20041;-79
2023/01/02 05:48:23;;;;;;;29.88;19.52;;;11.30;99.90;;;;;;6150057;23;20009;-79
2023/01/02 05:50:48;;;;;;;26.83;19.08;;;11.20;99.90;;;;;;6152211;23;20005;-79
2023/01/02 05:53:15;;;;;;;26.33;19.77;;;11.20;99.90;;;;;;6148883;23;20063;-79
2023/01/02 05:55:41;;;;;;;34.22;21.15;;;11.20;99.90;;;;;;6150139;23;20158;-79
2023/01/02 05:58:07;;;;;;;35.40;20.40;;;11.20;99.90;;;;;;6151933;23;20017;-79
2023/01/02 06:00:32;;;;;;;32.60;20.35;;;11.30;99.90;;;;;;6124787;23;20041;-81
2023/01/02 06:02:58;;;;;;;34.70;20.83;;;11.30;99.90;;;;;;6121751;23;20531;-80
2023/01/02 06:05:23;;;;;;;29.52;20.52;;;11.30;99.90;;;;;;6149646;23;20014;-79
2023/01/02 06:07:49;;;;;;;33.22;19.33;;;11.30;99.90;;;;;;6151767;23;20505;-79
2023/01/02 06:10:15;;;;;;;27.33;17.83;;;11.30;99.90;;;;;;6151595;23;20090;-79
2023/01/02 06:12:40;;;;;;;27.33;18.90;;;11.30;99.90;;;;;;6145152;23;20372;-79
2023/01/02 06:15:06;;;;;;;34.30;19.55;;;11.30;99.90;;;;;;6152827;23;20139;-78
2023/01/02 06:17:32;;;;;;;28.90;19.27;;;11.30;99.90;;;;;;6153737;23;20165;-79
2023/01/02 06:19:58;;;;;;;27.90;18.23;;;11.30;99.90;;;;;;6153401;23;20428;-79
2023/01/02 06:22:23;;;;;;;30.63;19.42;;;11.30;99.90;;;;;;6153286;23;20025;-79
2023/01/02 06:24:49;;;;;;;28.83;19.73;;;11.30;99.90;;;;;;6126750;23;20097;-79
2023/01/02 06:27:15;;;;;;;32.92;20.42;;;11.30;99.90;;;;;;6126797;23;20416;-78
2023/01/02 06:29:40;;;;;;;30.88;21.25;;;11.30;99.90;;;;;;6151024;23;20014;-79
2023/01/02 06:32:06;;;;;;;34.22;21.42;;;11.40;99.90;;;;;;6151909;23;20394;-79
2023/01/02 06:34:31;;;;;;;30.65;21.15;;;11.30;99.90;;;;;;6149653;23;20021;-78
2023/01/02 06:36:57;;;;;;;34.03;21.48;;;11.30;99.90;;;;;;6152918;23;20013;-80
2023/01/02 06:39:23;;;;;;;31.02;21.48;;;11.40;99.90;;;;;;6151433;23;20080;-80
2023/01/02 06:41:48;;;;;;;27.33;20.10;;;11.40;99.90;;;;;;6151370;23;20357;-80
2023/01/02 06:44:14;;;;;;;27.13;19.35;;;11.30;99.90;;;;;;6152361;23;20445;-79
2023/01/02 06:46:39;;;;;;;25.20;18.40;;;11.40;99.90;;;;;;6151584;23;20246;-79
2023/01/02 06:49:05;;;;;;;25.73;17.92;;;11.40;99.90;;;;;;6153097;23;20013;-79
2023/01/02 06:51:31;;;;;;;24.05;15.43;;;11.40;99.90;;;;;;6153199;23;20332;-80
2023/01/02 06:53:56;;;;;;;22.77;15.82;;;11.30;99.90;;;;;;6152243;23;20113;-80
2023/01/02 06:56:22;;;;;;;20.42;14.10;;;11.30;99.90;;;;;;6151251;23;20107;-80
2023/01/02 06:58:48;;;;;;;20.15;13.75;;;11.30;99.90;;;;;;6153805;23;20449;-80
2023/01/02 07:01:16;;;;;;;15.63;11.75;;;11.40;99.90;;;;;;6151505;23;20036;-79
2023/01/02 07:03:42;;;;;;;16.48;11.82;;;11.30;99.90;;;;;;6150038;23;20025;-80
2023/01/02 07:06:10;;;;;;;12.82;9.07;;;11.40;99.90;;;;;;6151877;23;20318;-80
2023/01/02 07:08:37;;;;;;;13.52;7.93;;;11.30;99.90;;;;;;6151679;23;20017;-80
2023/01/02 07:11:14;;;;;;;8.05;6.72;;;11.30;99.90;;;;;;6150903;23;20017;-79
2023/01/02 07:13:41;;;;;;;11.02;7.70;;;11.20;99.90;;;;;;6151071;23;20290;-80
2023/01/02 07:16:09;;;;;;;8.48;7.57;;;11.20;99.90;;;;;;6153425;23;20024;-80
2023/01/02 07:18:36;;;;;;;9.00;7.80;;;11.20;99.90;;;;;;6126454;23;20081;-80
2023/01/02 07:21:02;;;;;;;10.95;8.18;;;11.20;99.90;;;;;;6151028;23;20344;-79
2023/01/02 07:23:28;;;;;;;9.23;7.25;;;11.10;99.90;;;;;;6150695;23;20445;-79
2023/01/02 07:25:55;;;;;;;9.23;7.28;;;11.10;99.90;;;;;;6150340;23;20078;-79
2023/01/02 07:28:21;;;;;;;10.55;8.20;;;11.10;99.90;;;;;;6151853;23;20097;-79
2023/01/02 07:30:47;;;;;;;7.65;6.85;;;11.10;99.90;;;;;;6150917;23;20317;-79
2023/01/02 07:33:12;;;;;;;10.10;7.78;;;11.00;99.90;;;;;;6150403;23;20009;-79
2023/01/02 07:35:38;;;;;;;10.50;7.22;;;11.00;99.90;;;;;;6151214;23;20009;-79
2023/01/02 07:38:04;;;;;;;8.80;7.47;;;11.00;99.90;;;;;;6126493;23;20043;-79
2023/01/02 07:40:30;;;;;;;8.25;7.30;;;11.00;99.90;;;;;;6152615;23;20021;-79
2023/01/02 07:42:56;;;;;;;9.60;6.78;;;10.90;99.90;;;;;;6149158;23;20009;-80
2023/01/02 07:45:21;;;;;;;9.13;6.22;;;10.90;99.90;;;;;;6152897;23;20100;-79
2023/01/02 07:47:47;;;;;;;8.23;6.63;;;10.80;99.90;;;;;;6152781;23;20500;-80
2023/01/02 07:50:13;;;;;;;9.43;7.50;;;10.70;99.90;;;;;;6151120;23;20009;-79
2023/01/02 07:52:41;;;;;;;12.52;8.00;;;10.60;99.90;;;;;;6152074;23;20009;-79
2023/01/02 07:55:07;;;;;;;13.05;7.68;;;10.50;99.90;;;;;;6150973;23;20272;-81
2023/01/02 07:57:32;;;;;;;6.97;5.07;;;10.40;99.90;;;;;;6152158;23;20047;-80
2023/01/02 07:59:58;;;;;;;8.43;5.00;;;10.40;99.90;;;;;;6151163;23;20025;-80
2023/01/02 08:02:23;;;;;;;6.78;3.55;;;10.20;99.90;;;;;;6125155;23;20021;-80
2023/01/02 08:04:49;;;;;;;4.97;3.10;;;10.00;99.90;;;;;;6149952;23;20416;-80
2023/01/02 08:07:14;;;;;;;4.45;2.50;;;9.90;99.90;;;;;;6152615;23;20009;-81
2023/01/02 08:09:40;;;;;;;3.55;2.08;;;9.80;99.90;;;;;;6150434;23;20088;-80
2023/01/02 08:12:06;;;;;;;4.38;2.10;;;9.70;99.90;;;;;;6149508;23;20052;-79
2023/01/02 08:14:31;;;;;;;5.68;2.17;;;9.50;99.90;;;;;;6149553;23;20024;-80
2023/01/02 08:16:57;;;;;;;4.90;2.08;;;9.40;99.90;;;;;;6152193;23;20025;-81
2023/01/02 08:19:22;;;;;;;5.70;2.08;;;9.40;99.90;;;;;;6152207;23;20436;-81
2023/01/02 08:21:48;;;;;;;4.72;1.55;;;9.30;99.90;;;;;;6150150;23;20076;-80
2023/01/02 08:24:13;;;;;;;4.30;1.80;;;9.30;99.90;;;;;;6151603;23;20021;-81
2023/01/02 08:26:39;;;;;;;4.85;2.20;;;9.20;99.90;;;;;;6149930;23;20014;-81
2023/01/02 08:29:06;;;;;;;6.10;1.90;;;9.20;99.90;;;;;;6149379;23;20061;-81
2023/01/02 08:31:31;;;;;;;3.28;1.70;;;9.20;99.90;;;;;;6125271;23;20344;-81
2023/01/02 08:33:57;;;;;;;6.32;1.90;;;9.20;99.90;;;;;;6151691;23;20010;-81
2023/01/02 08:36:23;;;;;;;4.90;1.70;;;9.20;99.90;;;;;;6125767;23;20009;-81
2023/01/02 08:38:48;;;;;;;5.28;1.90;;;9.10;99.90;;;;;;6150806;23;20018;-81
2023/01/02 08:41:14;;;;;;;4.88;2.38;;;9.00;99.90;;;;;;6125345;23;20024;-81
2023/01/02 08:43:40;;;;;;;6.68;2.15;;;9.00;99.90;;;;;;6149624;23;20009;-81
2023/01/02 08:46:07;;;;;;;7.00;2.35;;;9.00;99.90;;;;;;6149714;23;20009;-80
2023/01/02 08:48:34;;;;;;;7.63;2.40;;;9.00;99.90;;;;;;6150096;23;20174;-80
2023/01/02 08:50:59;;;;;;;6.20;2.28;;;9.00;99.90;;;;;;6152023;23;20037;-80
2023/01/02 08:53:25;;;;;;;5.95;2.45;;;9.00;99.90;;;;;;6149519;23;20009;-80
2023/01/02 08:55:50;;;;;;;5.65;2.40;;;9.00;99.90;;;;;;6151116;23;20073;-81
2023/01/02 08:58:16;;;;;;;4.72;2.50;;;9.00;99.90;;;;;;6149763;23;20084;-82
2023/01/02 09:00:42;;;;;;;5.20;2.58;;;9.00;99.90;;;;;;6150038;23;20014;-81
2023/01/02 09:03:07;;;;;;;6.28;2.55;;;8.90;99.90;;;;;;6124542;23;20009;-81
2023/01/02 09:05:33;;;;;;;5.10;2.60;;;8.90;99.90;;;;;;6151697;23;20149;-81
2023/01/02 09:08:00;;;;;;;5.50;2.72;;;8.90;99.90;;;;;;6124942;23;20010;-82
2023/01/02 09:10:26;;;;;;;6.10;2.72;;;8.90;99.90;;;;;;6149579;23;20005;-80
2023/01/02 09:12:52;;;;;;;6.15;2.60;;;8.90;99.90;;;;;;6148760;23;20444;-80
2023/01/02 09:15:18;;;;;;;6.25;2.70;;;8.90;99.90;;;;;;6124307;23;20064;-80
2023/01/02 09:17:43;;;;;;;4.45;2.50;;;9.00;99.90;;;;;;6151621;23;20578;-81
2023/01/02 09:20:09;;;;;;;4.22;2.50;;;8.90;99.90;;;;;;6150003;23;20040;-80
2023/01/02 09:22:35;;;;;;;5.03;2.50;;;8.90;99.90;;;;;;6149026;23;20088;-81
2023/01/02 09:25:01;;;;;;;8.43;2.95;;;8.90;99.90;;;;;;6124433;23;20017;-80
2023/01/02 09:27:26;;;;;;;5.65;2.85;;;9.00;99.90;;;;;;6151590;23;20279;-81
2023/01/02 09:29:52;;;;;;;6.55;3.00;;;9.00;99.90;;;;;;6125200;23;20009;-82
2023/01/02 09:32:18;;;;;;;5.47;2.95;;;8.90;99.90;;;;;;6148844;23;20017;-82
2023/01/02 09:34:49;;;;;;;5.43;3.10;;;8.90;99.90;;;;;;6149513;23;20017;-82
2023/01/02 09:37:16;;;;;;;6.82;3.53;;;9.00;99.90;;;;;;6150868;23;20022;-82
2023/01/02 09:39:42;;;;;;;5.25;2.95;;;9.00;99.90;;;;;;6146145;23;20013;-81
2023/01/02 09:42:14;;;;;;;5.90;3.58;;;9.00;99.90;;;;;;6148341;23;20448;-82
2023/01/02 09:44:54;;;;;;;6.50;3.50;;;9.00;99.90;;;;;;6149001;23;20014;-80
2023/01/02 09:47:28;;;;;;;5.68;3.63;;;9.10;99.90;;;;;;6149589;23;20052;-82
2023/01/02 09:50:02;;;;;;;6.43;3.70;;;9.10;99.90;;;;;;6150884;23;20064;-81
2023/01/02 09:52:43;;;;;;;7.15;3.03;;;9.10;99.90;;;;;;6148175;23;20021;-81
2023/01/02 09:55:20;;;;;;;4.70;2.70;;;9.10;99.90;;;;;;6149987;23;20084;-81
2023/01/02 09:58:14;;;;;;;4.07;2.75;;;9.10;99.90;;;;;;6149049;23;20021;-82
2023/01/02 10:00:42;;;;;;;6.30;3.03;;;9.20;99.90;;;;;;6105806;23;20080;-82
2023/01/02 10:03:29;;;;;;;3.97;2.63;;;9.20;99.90;;;;;;6148743;23;20010;-82
2023/01/02 10:06:11;;;;;;;4.60;2.70;;;9.20;99.90;;;;;;6122365;23;20010;-81
2023/01/02 10:09:06;;;;;;;7.90;3.35;;;9.20;99.90;;;;;;6125072;23;20109;-82
2023/01/02 10:11:51;;;;;;;6.40;3.10;;;9.20;99.90;;;;;;6124482;23;20029;-82
2023/01/02 10:14:35;;;;;;;7.53;3.67;;;9.20;99.90;;;;;;6147043;23;20018;-81
2023/01/02 10:17:04;;;;;;;5.70;3.40;;;9.30;99.90;;;;;;6149157;23;20048;-82
2023/01/02 10:19:53;;;;;;;7.10;3.53;;;9.30;99.90;;;;;;6150069;23;20420;-81
2023/01/02 10:22:23;;;;;;;6.65;4.10;;;9.40;99.90;;;;;;6123040;23;20021;-81
2023/01/02 10:25:01;;;;;;;5.95;3.65;;;9.40;99.90;;;;;;6150763;23;20017;-81
2023/01/02 10:27:35;;;;;;;7.40;4.22;;;9.30;99.90;;;;;;6150935;23;20061;-80
2023/01/02 10:30:00;;;;;;;6.22;3.90;;;9.40;99.90;;;;;;6150897;23;20459;-81
2023/01/02 10:32:27;;;;;;;6.75;3.53;;;9.30;99.90;;;;;;6148402;23;20051;-82
2023/01/02 10:34:58;;;;;;;7.50;3.88;;;9.40;99.90;;;;;;6150755;23;20061;-80
2023/01/02 10:37:25;;;;;;;7.03;3.97;;;9.40;99.90;;;;;;6148819;23;20053;-81
2023/01/02 10:39:51;;;;;;;7.13;3.53;;;9.40;99.90;;;;;;6149009;23;20068;-80
2023/01/02 10:42:17;;;;;;;8.52;4.05;;;9.30;99.90;;;;;;6150249;23;20519;-81
2023/01/02 10:44:44;;;;;;;7.80;4.68;;;9.30;99.90;;;;;;6123976;23;20396;-80
2023/01/02 10:47:19;;;;;;;7.18;4.10;;;9.20;99.90;;;;;;6149653;23;20362;-80
2023/01/02 10:49:46;;;;;;;8.35;4.47;;;9.20;99.90;;;;;;6148690;23;20071;-81
2023/01/02 10:52:41;;;;;;;7.00;4.28;;;9.20;99.90;;;;;;6148426;23;20401;-81
2023/01/02 10:55:07;;;;;;;6.10;3.67;;;9.20;99.90;;;;;;6141570;23;20022;-80
2023/01/02 10:57:39;;;;;;;7.00;3.60;;;9.20;99.90;;;;;;6149239;23;20037;-81
2023/01/02 11:00:07;;;;;;;5.78;3.53;;;9.20;99.90;;;;;;6148992;23;20022;-81
2023/01/02 11:02:39;;;;;;;6.22;3.50;;;9.30;99.90;;;;;;6150500;23;20044;-81
2023/01/02 11:05:07;;;;;;;8.82;3.63;;;9.30;99.90;;;;;;6152172;23;20021;-80
2023/01/02 11:07:36;;;;;;;6.68;3.28;;;9.30;99.90;;;;;;6152703;23;20017;-81
2023/01/02 11:10:10;;;;;;;7.00;3.70;;;9.30;99.90;;;;;;6152949;23;20104;-81
2023/01/02 11:12:45;;;;;;;;;;;9.40;99.90;;;;;;6125766;23;20021;-80
2023/01/02 11:15:12;;;;;;;6.20;3.45;;;9.30;99.90;;;;;;6152900;23;19916;-81
2023/01/02 11:17:43;;;;;;;6.80;3.50;;;9.40;99.90;;;;;;6151157;23;20080;-81
2023/01/02 11:20:33;;;;;;;9.98;3.83;;;9.30;99.90;;;;;;6150746;23;20006;-81
2023/01/02 11:23:02;;;;;;;9.00;3.30;;;9.40;99.90;;;;;;6125718;23;20017;-80
2023/01/02 11:25:50;;;;;;;11.43;4.05;;;9.50;99.90;;;;;;6152040;23;20013;-80
2023/01/02 11:28:25;;;;;;;7.47;3.53;;;9.50;99.90;;;;;;6125393;23;20017;-81
2023/01/02 11:30:58;;;;;;;9.68;3.03;;;9.50;99.90;;;;;;6150719;23;20009;-82
2023/01/02 11:33:26;;;;;;;;;;;9.60;99.90;;;;;;6152276;23;20372;-79
2023/01/02 11:35:55;;;;;;;10.30;3.47;;;9.60;99.90;;;;;;6151292;23;20287;-79
2023/01/02 11:38:27;;;;;;;7.00;3.30;;;9.70;99.90;;;;;;6150627;23;20017;-79
2023/01/02 11:40:54;;;;;;;8.23;3.22;;;9.60;99.90;;;;;;6126266;23;20049;-80
2023/01/02 11:46:18;;;;;;;7.60;3.08;;;9.50;99.90;;;;;;6150762;23;20021;-80
2023/01/02 11:48:44;;;;;;;9.60;3.20;;;9.40;99.90;;;;;;6148660;23;20109;-79
2023/01/02 11:51:18;;;;;;;8.68;2.90;;;9.50;99.90;;;;;;6150600;23;20053;-79
2023/01/02 11:53:47;;;;;;;8.43;3.47;;;9.40;99.90;;;;;;6149216;23;20044;-79
2023/01/02 11:56:35;;;;;;;7.50;2.72;;;9.30;99.90;;;;;;6150604;23;20021;-80
2023/01/02 11:59:20;;;;;;;11.52;3.38;;;9.40;99.90;;;;;;6153160;23;20013;-81
2023/01/02 12:02:00;;;;;;;8.98;3.10;;;9.30;99.90;;;;;;6150815;23;20056;-80
2023/01/02 12:04:26;;;;;;;8.57;3.47;;;9.30;99.90;;;;;;6125328;23;20109;-81
2023/01/02 12:07:27;;;;;;;5.88;3.15;;;9.30;99.90;;;;;;6150423;23;20041;-80
2023/01/02 12:10:04;;;;;;;9.35;3.38;;;9.30;99.90;;;;;;6122024;23;20017;-81
2023/01/02 12:12:40;;;;;;;9.48;3.22;;;9.30;99.90;;;;;;6151303;23;20013;-81
2023/01/02 12:15:05;;;;;;;9.07;3.15;;;9.50;99.90;;;;;;6152565;23;20017;-81
2023/01/02 12:17:37;;;;;;;12.20;3.45;;;9.40;99.90;;;;;;6124934;23;20503;-81
2023/01/02 12:20:05;;;;;;;12.05;3.92;;;9.50;99.90;;;;;;6150437;23;20013;-81
2023/01/02 12:22:57;;;;;;;10.65;3.17;;;9.60;99.90;;;;;;6125306;23;20362;-81
2023/01/02 12:25:32;;;;;;;8.75;3.35;;;9.60;99.90;;;;;;6150202;23;20020;-81
2023/01/02 12:28:17;;;;;;;7.97;2.70;;;9.70;99.90;;;;;;6149676;23;20021;-82
2023/01/02 12:31:01;;;;;;;9.95;2.95;;;9.80;99.90;;;;;;6147945;23;20017;-81
2023/01/02 12:33:46;;;;;;;10.40;3.33;;;9.60;99.90;;;;;;6148812;23;20173;-80
2023/01/02 12:36:23;;;;;;;10.27;2.60;;;9.60;99.90;;;;;;6125151;23;20024;-81
2023/01/02 12:39:10;;;;;;;10.30;2.88;;;9.50;99.90;;;;;;6149679;23;20342;-80
2023/01/02 12:41:47;;;;;;;12.48;2.83;;;9.50;99.90;;;;;;6125451;23;20014;-81
2023/01/02 12:44:43;;;;;;;14.10;3.47;;;9.60;99.90;;;;;;6149745;23;20010;-81
2023/01/02 12:47:40;;;;;;;11.30;3.67;;;9.50;99.90;;;;;;6124947;23;20522;-81
2023/01/02 12:50:24;;;;;;;11.80;3.60;;;9.60;99.90;;;;;;6151319;23;20036;-80
2023/01/02 12:53:01;;;;;;;12.25;5.18;;;9.60;99.90;;;;;;6149502;23;20045;-81
2023/01/02 12:55:51;;;;;;;12.20;3.83;;;9.70;99.90;;;;;;6152049;23;20088;-81
2023/01/02 12:58:44;;;;;;;14.02;5.63;;;9.70;99.90;;;;;;6148541;23;20021;-81
2023/01/02 13:01:39;;;;;;;15.05;6.72;;;9.70;99.90;;;;;;6125080;23;20013;-81
2023/01/02 13:04:21;;;;;;;14.77;6.63;;;9.70;99.90;;;;;;6148983;23;20017;-81